Terminal Aerodrome Forecast
Issued by NWS

Home | Current Version | Previous Version | Text Only | Print | Product List | Glossary Off
Versions: 1 2 3 4 5 6 7 8 9 10 11 12 13 14 15 16 17 18 19 20 21 22

000
FTUS43 KPAH 250910 AAA
TAFCGI
TAF AMD
KCGI 250910Z 2509/2606 30013KT P6SM BKN040
      TEMPO 2509/2513 30015G25KT
     FM251500 31012G20KT P6SM SCT040
     FM252300 30004KT P6SM SKC=

USA.gov is the U.S. government's official web portal to all federal, state and local government web resources and services.